createdAt,value
2019-05-22T00:00:41.830Z,61.60
2019-05-22T00:03:27.057Z,61.70
2019-05-22T00:05:58.240Z,61.90
2019-05-22T00:08:29.944Z,61.80
2019-05-22T00:11:02.077Z,61.90
2019-05-22T00:13:32.439Z,61.80
2019-05-22T00:16:03.953Z,61.80
2019-05-22T00:18:35.368Z,61.80
2019-05-22T00:21:07.349Z,61.90
2019-05-22T00:23:40.600Z,61.90
2019-05-22T00:26:11.593Z,61.80
2019-05-22T00:28:42.948Z,61.90
2019-05-22T00:31:15.383Z,61.90
2019-05-22T00:33:46.105Z,62.10
2019-05-22T00:36:17.856Z,61.90
2019-05-22T00:38:49.928Z,61.70
2019-05-22T00:41:21.956Z,61.50
2019-05-22T00:43:52.533Z,61.70
2019-05-22T00:46:24.543Z,62.60
2019-05-22T00:48:55.485Z,62.00
2019-05-22T00:51:28.941Z,61.90
2019-05-22T00:54:18.965Z,62.20
2019-05-22T00:56:51.950Z,62.20
2019-05-22T00:59:26.607Z,62.40
2019-05-22T01:02:04.489Z,62.50
2019-05-22T01:04:35.826Z,62.60
2019-05-22T01:07:09.309Z,62.80
2019-05-22T01:09:42.178Z,63.00
2019-05-22T01:12:19.534Z,63.00
2019-05-22T01:14:50.468Z,63.10
2019-05-22T01:17:22.059Z,63.20
2019-05-22T01:19:54.445Z,63.30
2019-05-22T01:22:26.728Z,63.30
2019-05-22T01:24:59.641Z,63.40
2019-05-22T01:27:32.563Z,63.50
2019-05-22T01:30:04.897Z,63.50
2019-05-22T01:32:53.135Z,63.60
2019-05-22T01:35:40.653Z,63.70
2019-05-22T01:38:12.750Z,63.70
2019-05-22T01:41:05.387Z,64.00
2019-05-22T01:43:37.585Z,64.00
2019-05-22T01:46:09.637Z,64.00
2019-05-22T01:48:42.984Z,64.10
2019-05-22T01:51:15.812Z,64.10
2019-05-22T01:53:47.897Z,64.20
2019-05-22T01:56:19.963Z,64.20
2019-05-22T01:58:50.689Z,64.20
2019-05-22T02:01:22.022Z,64.30
2019-05-22T02:03:54.111Z,64.20
2019-05-22T02:06:24.938Z,64.10
2019-05-22T02:09:02.573Z,63.90
2019-05-22T02:11:35.294Z,64.00
2019-05-22T02:14:15.369Z,63.90
2019-05-22T02:16:56.659Z,63.80
2019-05-22T02:19:21.034Z,63.80
2019-05-22T02:21:53.271Z,63.80
2019-05-22T02:24:25.188Z,63.60
2019-05-22T02:26:55.614Z,63.50
2019-05-22T02:29:26.326Z,63.50
2019-05-22T02:31:58.226Z,63.40
2019-05-22T02:34:30.223Z,63.40
2019-05-22T02:37:00.709Z,63.20
2019-05-22T02:39:32.776Z,63.10
2019-05-22T02:42:09.494Z,63.10
2019-05-22T02:44:42.374Z,63.20
2019-05-22T02:47:20.061Z,63.20
2019-05-22T02:49:45.973Z,63.10
2019-05-22T02:52:16.890Z,63.00
2019-05-22T02:54:48.849Z,63.00
2019-05-22T02:57:19.353Z,63.00
2019-05-22T02:59:49.956Z,62.90
2019-05-22T03:02:23.610Z,62.80
2019-05-22T03:05:04.322Z,62.90
2019-05-22T03:07:34.707Z,63.00
2019-05-22T03:10:08.103Z,63.10
2019-05-22T03:12:39.096Z,63.10
2019-05-22T03:15:12.986Z,63.10
2019-05-22T03:17:45.098Z,63.10
2019-05-22T03:20:21.030Z,63.20
2019-05-22T03:23:18.719Z,63.50
2019-05-22T03:25:49.157Z,63.60
2019-05-22T03:28:21.259Z,64.10
2019-05-22T03:30:53.440Z,64.50
2019-05-22T03:33:24.055Z,65.00
2019-05-22T03:36:12.529Z,65.50
2019-05-22T03:38:44.031Z,66.20
2019-05-22T03:41:16.795Z,66.60
2019-05-22T03:43:48.488Z,66.80
2019-05-22T03:46:37.147Z,67.40
2019-05-22T03:49:28.366Z,67.80
2019-05-22T03:51:45.694Z,68.00
2019-05-22T03:54:16.414Z,68.30
2019-05-22T03:56:47.804Z,68.70
2019-05-22T03:59:18.192Z,69.10
2019-05-22T04:01:48.808Z,69.40
2019-05-22T04:04:34.061Z,69.70
2019-05-22T04:07:06.633Z,70.00
2019-05-22T04:09:40.481Z,70.40
2019-05-22T04:12:11.604Z,70.70
2019-05-22T04:14:42.366Z,70.70
2019-05-22T04:17:14.989Z,70.60
2019-05-22T04:19:50.316Z,70.90
2019-05-22T04:22:18.941Z,70.90
2019-05-22T04:24:49.462Z,70.90
2019-05-22T04:27:20.138Z,71.20
2019-05-22T04:29:52.550Z,71.20
2019-05-22T04:32:27.736Z,71.20
2019-05-22T04:34:59.728Z,71.50
2019-05-22T04:37:30.893Z,71.60
2019-05-22T04:40:25.692Z,71.80
2019-05-22T04:42:58.732Z,71.80
2019-05-22T04:45:29.714Z,71.70
2019-05-22T04:48:03.813Z,71.50
2019-05-22T04:50:34.301Z,71.60
2019-05-22T04:53:06.619Z,71.80
2019-05-22T04:55:38.512Z,71.80
2019-05-22T04:58:10.926Z,71.90
2019-05-22T05:00:41.542Z,72.20
2019-05-22T05:03:12.911Z,72.10
2019-05-22T05:05:48.452Z,72.30
2019-05-22T05:08:19.041Z,72.50
2019-05-22T05:10:51.117Z,72.60
2019-05-22T05:13:21.731Z,72.90
2019-05-22T05:15:52.187Z,72.90
2019-05-22T05:18:23.647Z,73.10
2019-05-22T05:20:54.477Z,73.00
2019-05-22T05:23:25.133Z,73.10
2019-05-22T05:25:55.528Z,73.10
2019-05-22T05:28:26.094Z,73.10
2019-05-22T05:30:57.309Z,73.00
2019-05-22T05:33:30.940Z,73.10
2019-05-22T05:36:01.707Z,73.00
2019-05-22T05:38:38.474Z,73.20
2019-05-22T05:41:09.407Z,73.10
2019-05-22T05:43:41.195Z,73.20
2019-05-22T05:46:11.646Z,73.20
2019-05-22T05:48:43.496Z,73.20
2019-05-22T05:51:22.153Z,73.30
2019-05-22T05:54:02.373Z,72.90
2019-05-22T05:56:35.889Z,72.80
2019-05-22T05:59:08.936Z,72.40
2019-05-22T06:01:42.457Z,71.70
2019-05-22T06:04:13.389Z,71.50
2019-05-22T06:07:00.880Z,71.40
2019-05-22T06:09:30.699Z,71.40
2019-05-22T06:12:05.672Z,71.10
2019-05-22T06:14:36.423Z,71.10
2019-05-22T06:17:45.738Z,70.80
2019-05-22T06:20:19.202Z,70.60
2019-05-22T06:23:27.500Z,70.70
2019-05-22T06:25:58.638Z,70.70
2019-05-22T06:28:31.980Z,70.80
2019-05-22T06:31:05.446Z,71.00
2019-05-22T06:33:37.637Z,70.90
2019-05-22T06:36:14.224Z,71.00
2019-05-22T06:38:50.378Z,70.90
2019-05-22T06:41:23.183Z,71.20
2019-05-22T06:44:25.775Z,71.00
2019-05-22T06:46:56.934Z,71.10
2019-05-22T06:49:36.368Z,71.30
2019-05-22T06:52:07.919Z,71.50
2019-05-22T06:54:38.881Z,71.50
2019-05-22T06:57:12.018Z,71.60
2019-05-22T06:59:43.538Z,71.90
2019-05-22T07:02:15.244Z,71.80
2019-05-22T07:04:47.215Z,72.00
2019-05-22T07:07:19.961Z,71.70
2019-05-22T07:09:50.565Z,71.70
2019-05-22T07:12:22.709Z,71.90
2019-05-22T07:15:06.514Z,71.70
2019-05-22T07:17:37.872Z,71.80
2019-05-22T07:20:08.840Z,72.20
2019-05-22T07:22:39.203Z,72.40
2019-05-22T07:25:10.849Z,72.60
2019-05-22T07:27:42.207Z,72.50
2019-05-22T07:30:12.833Z,72.30
2019-05-22T07:32:43.368Z,72.10
2019-05-22T07:35:14.065Z,71.50
2019-05-22T07:37:46.812Z,71.20
2019-05-22T07:40:18.666Z,70.80
2019-05-22T07:42:51.115Z,70.30
2019-05-22T07:45:26.056Z,69.70
2019-05-22T07:47:57.297Z,69.10
2019-05-22T07:50:29.197Z,69.00
2019-05-22T07:53:00.582Z,69.20
2019-05-22T07:55:33.720Z,69.80
2019-05-22T07:58:10.167Z,69.30
2019-05-22T08:00:43.732Z,69.50
2019-05-22T08:03:14.205Z,69.70
2019-05-22T08:05:47.528Z,70.10
2019-05-22T08:08:19.924Z,70.20
2019-05-22T08:10:52.171Z,70.10
2019-05-22T08:13:24.389Z,69.80
2019-05-22T08:15:54.866Z,69.80
2019-05-22T08:18:27.044Z,70.20
2019-05-22T08:20:58.078Z,69.90
2019-05-22T08:23:30.450Z,70.10
2019-05-22T08:26:01.060Z,70.10
2019-05-22T08:28:33.253Z,69.80
2019-05-22T08:31:04.224Z,69.60
2019-05-22T08:33:36.331Z,69.50
2019-05-22T08:36:08.094Z,68.90
2019-05-22T08:38:39.161Z,68.40
2019-05-22T08:41:10.961Z,68.10
2019-05-22T08:43:56.495Z,68.70
2019-05-22T08:46:16.970Z,68.80
2019-05-22T08:48:49.299Z,68.90
2019-05-22T08:51:21.208Z,68.60
2019-05-22T08:53:53.486Z,68.30
2019-05-22T08:56:24.493Z,68.70
2019-05-22T08:58:55.156Z,68.40
2019-05-22T09:01:25.616Z,67.90
2019-05-22T09:03:56.533Z,67.40
2019-05-22T09:06:26.967Z,67.00
2019-05-22T09:08:57.529Z,67.20
2019-05-22T09:11:28.185Z,67.20
2019-05-22T09:13:58.657Z,67.30
2019-05-22T09:16:29.262Z,67.80
2019-05-22T09:18:59.881Z,68.30
2019-05-22T09:21:30.536Z,68.60
2019-05-22T09:24:02.166Z,68.50
2019-05-22T09:29:03.322Z,67.50
2019-05-22T09:31:34.627Z,67.30
2019-05-22T09:34:05.706Z,67.30
2019-05-22T09:36:37.442Z,66.90
2019-05-22T09:39:09.534Z,66.10
2019-05-22T09:41:40.080Z,67.10
2019-05-22T09:44:10.545Z,67.00
2019-05-22T09:46:41.168Z,67.20
2019-05-22T09:49:12.057Z,67.00
2019-05-22T09:51:42.556Z,66.80
2019-05-22T09:54:13.638Z,66.80
2019-05-22T09:56:44.115Z,66.90
2019-05-22T09:59:14.491Z,67.40
2019-05-22T10:01:45.305Z,67.60
2019-05-22T10:04:15.923Z,68.30
2019-05-22T10:06:46.563Z,68.80
2019-05-22T10:09:17.341Z,69.30
2019-05-22T10:11:47.725Z,69.60
2019-05-22T10:14:18.422Z,69.80
2019-05-22T10:16:49.104Z,70.10
2019-05-22T10:19:20.411Z,70.10
2019-05-22T10:21:51.513Z,70.50
2019-05-22T10:24:22.183Z,70.80
2019-05-22T10:26:52.978Z,70.60
2019-05-22T10:29:24.847Z,70.80
2019-05-22T10:31:55.389Z,70.50
2019-05-22T10:34:26.097Z,70.60
2019-05-22T10:36:56.966Z,70.60
2019-05-22T10:39:27.988Z,70.70
2019-05-22T10:41:58.611Z,71.40
2019-05-22T10:44:29.158Z,71.10
2019-05-22T10:47:01.183Z,70.50
2019-05-22T10:49:31.726Z,70.40
2019-05-22T10:52:02.205Z,70.40
2019-05-22T10:54:32.679Z,70.40
2019-05-22T10:57:03.180Z,70.20
2019-05-22T10:59:34.012Z,69.90
2019-05-22T11:02:04.497Z,69.80
2019-05-22T11:04:35.745Z,69.10
2019-05-22T11:07:07.809Z,68.50
2019-05-22T11:09:39.698Z,68.00
2019-05-22T11:12:10.475Z,67.90
2019-05-22T11:14:41.161Z,67.00
2019-05-22T11:17:11.897Z,66.60
2019-05-22T11:19:42.302Z,66.20
2019-05-22T11:22:13.404Z,65.40
2019-05-22T11:24:43.845Z,65.40
2019-05-22T11:27:14.625Z,64.80
2019-05-22T11:29:45.513Z,64.20
2019-05-22T11:32:17.702Z,63.30
2019-05-22T11:34:48.321Z,63.10
2019-05-22T11:37:19.492Z,63.70
2019-05-22T11:39:50.196Z,64.50
2019-05-22T11:42:22.521Z,64.70
2019-05-22T11:44:54.412Z,65.00
2019-05-22T11:47:25.177Z,65.20
2019-05-22T11:49:55.712Z,65.50
2019-05-22T11:52:28.691Z,66.10
2019-05-22T11:54:59.523Z,66.00
2019-05-22T11:57:30.264Z,66.20
2019-05-22T12:00:02.554Z,66.30
2019-05-22T12:02:33.660Z,66.30
2019-05-22T12:05:05.259Z,66.70
2019-05-22T12:07:36.498Z,66.90
2019-05-22T12:10:08.896Z,66.80
2019-05-22T12:12:39.720Z,66.90
2019-05-22T12:15:12.398Z,66.80
2019-05-22T12:17:43.291Z,66.80
2019-05-22T12:20:14.667Z,66.60
2019-05-22T12:22:45.387Z,66.70
2019-05-22T12:25:16.304Z,66.70
2019-05-22T12:27:46.958Z,66.30
2019-05-22T12:30:19.493Z,66.00
2019-05-22T12:32:50.283Z,66.10
2019-05-22T12:35:21.168Z,66.10
2019-05-22T12:37:51.990Z,66.30
2019-05-22T12:40:22.936Z,66.30
2019-05-22T12:42:53.608Z,66.30
2019-05-22T12:45:26.563Z,66.60
2019-05-22T12:47:57.695Z,66.80
2019-05-22T12:50:31.714Z,65.90
2019-05-22T12:53:05.419Z,66.30
2019-05-22T12:55:36.040Z,66.40
2019-05-22T12:58:06.714Z,66.60
2019-05-22T13:00:37.369Z,66.00
2019-05-22T13:03:09.354Z,65.80
2019-05-22T13:05:40.701Z,66.00
2019-05-22T13:08:13.564Z,66.00
2019-05-22T13:10:44.916Z,66.00
2019-05-22T13:13:15.474Z,65.90
2019-05-22T13:15:45.911Z,65.60
2019-05-22T13:18:20.362Z,65.50
2019-05-22T13:20:52.894Z,64.60
2019-05-22T13:23:26.716Z,64.80
2019-05-22T13:25:57.569Z,65.20
2019-05-22T13:28:31.520Z,65.90
2019-05-22T13:31:02.776Z,66.30
2019-05-22T13:33:35.420Z,66.40
2019-05-22T13:36:07.456Z,66.30
2019-05-22T13:38:38.241Z,66.40
2019-05-22T13:41:09.706Z,66.10
2019-05-22T13:43:41.856Z,65.60
2019-05-22T13:46:12.342Z,65.60
2019-05-22T13:48:44.236Z,66.10
2019-05-22T13:51:15.166Z,66.00
2019-05-22T13:53:45.702Z,66.20
2019-05-22T13:56:17.387Z,66.20
2019-05-22T13:58:49.000Z,66.40
2019-05-22T14:01:20.488Z,66.50
2019-05-22T14:03:51.727Z,66.50
2019-05-22T14:06:22.815Z,66.30
2019-05-22T14:08:53.327Z,66.10
2019-05-22T14:11:23.922Z,66.00
2019-05-22T14:13:54.949Z,66.60
2019-05-22T14:16:28.607Z,67.20
2019-05-22T14:18:59.246Z,67.70
2019-05-22T14:21:29.648Z,67.80
2019-05-22T14:24:00.273Z,67.90
2019-05-22T14:26:30.666Z,67.80
2019-05-22T14:29:01.280Z,68.10
2019-05-22T14:31:31.826Z,68.70
2019-05-22T14:34:03.822Z,68.80
2019-05-22T14:36:34.630Z,68.90
2019-05-22T14:39:08.316Z,68.60
2019-05-22T14:41:38.741Z,68.50
2019-05-22T14:44:10.621Z,68.70
2019-05-22T14:46:41.096Z,68.40
2019-05-22T14:49:13.360Z,68.60
2019-05-22T14:51:44.049Z,68.80
2019-05-22T14:54:14.623Z,69.30
2019-05-22T14:56:46.201Z,69.80
2019-05-22T14:59:17.960Z,70.00
2019-05-22T15:01:48.389Z,70.10
2019-05-22T15:04:19.283Z,70.60
2019-05-22T15:06:50.143Z,71.10
2019-05-22T15:09:20.967Z,71.00
2019-05-22T15:11:51.889Z,71.30
2019-05-22T15:14:22.704Z,71.20
2019-05-22T15:16:53.195Z,71.30
2019-05-22T15:19:23.875Z,71.20
2019-05-22T15:21:55.587Z,71.50
2019-05-22T15:24:27.457Z,71.40
2019-05-22T15:26:58.650Z,71.40
2019-05-22T15:29:29.340Z,71.50
2019-05-22T15:31:59.737Z,71.20
2019-05-22T15:34:32.086Z,71.20
2019-05-22T15:37:02.821Z,71.30
2019-05-22T15:39:34.427Z,71.60
2019-05-22T15:42:07.009Z,71.60
2019-05-22T15:44:40.059Z,72.10
2019-05-22T15:47:12.051Z,72.30
2019-05-22T15:49:44.337Z,72.30
2019-05-22T15:52:16.575Z,71.90
2019-05-22T15:54:49.659Z,72.10
2019-05-22T15:57:20.493Z,72.40
2019-05-22T15:59:52.106Z,72.60
2019-05-22T16:02:24.249Z,72.60
2019-05-22T16:04:55.315Z,73.00
2019-05-22T16:07:25.893Z,73.70
2019-05-22T16:09:57.337Z,73.70
2019-05-22T16:12:28.717Z,74.00
2019-05-22T16:15:01.229Z,73.90
2019-05-22T16:17:32.791Z,73.80
2019-05-22T16:20:05.047Z,73.90
2019-05-22T16:22:37.081Z,74.10
2019-05-22T16:25:09.538Z,74.00
2019-05-22T16:27:43.138Z,73.90
2019-05-22T16:30:15.431Z,74.00
2019-05-22T16:32:47.031Z,74.10
2019-05-22T16:35:17.995Z,73.90
2019-05-22T16:37:48.554Z,73.80
2019-05-22T16:40:20.726Z,73.60
2019-05-22T16:42:51.882Z,73.70
2019-05-22T16:45:24.716Z,73.70
2019-05-22T16:47:56.653Z,73.80
2019-05-22T16:50:28.213Z,73.70
2019-05-22T16:52:59.654Z,73.70
2019-05-22T16:55:30.986Z,73.90
2019-05-22T16:58:01.477Z,73.90
2019-05-22T17:00:33.703Z,73.80
2019-05-22T17:03:04.854Z,74.20
2019-05-22T17:05:35.968Z,74.40
2019-05-22T17:08:07.457Z,74.40
2019-05-22T17:10:39.619Z,74.50
2019-05-22T17:13:12.340Z,74.30
2019-05-22T17:15:44.000Z,74.10
2019-05-22T17:18:17.195Z,74.10
2019-05-22T17:20:48.923Z,74.40
2019-05-22T17:23:19.370Z,74.40
2019-05-22T17:25:51.368Z,74.10
2019-05-22T17:28:22.196Z,74.20
2019-05-22T17:30:52.886Z,74.30
2019-05-22T17:33:23.732Z,74.10
2019-05-22T17:35:54.928Z,74.20
2019-05-22T17:38:27.166Z,74.20
2019-05-22T17:41:00.423Z,74.20
2019-05-22T17:43:33.702Z,74.30
2019-05-22T17:46:06.275Z,74.20
2019-05-22T17:48:37.029Z,74.40
2019-05-22T17:51:09.784Z,74.30
2019-05-22T17:53:40.534Z,74.30
2019-05-22T17:56:11.281Z,74.40
2019-05-22T17:58:41.796Z,74.60
2019-05-22T18:01:13.461Z,74.50
2019-05-22T18:03:43.935Z,74.50
2019-05-22T18:06:14.943Z,74.30
2019-05-22T18:08:45.311Z,74.30
2019-05-22T18:11:16.438Z,74.30
2019-05-22T18:14:01.796Z,74.40
2019-05-22T18:16:32.617Z,74.50
2019-05-22T18:19:04.858Z,74.60
2019-05-22T18:21:35.673Z,74.70
2019-05-22T18:24:06.860Z,74.90
2019-05-22T18:26:37.446Z,75.00
2019-05-22T18:29:07.983Z,75.00
2019-05-22T18:31:38.464Z,74.90
2019-05-22T18:34:09.320Z,74.60
2019-05-22T18:36:41.265Z,74.50
2019-05-22T18:39:13.319Z,74.90
2019-05-22T18:41:43.896Z,74.80
2019-05-22T18:44:14.478Z,75.00
2019-05-22T18:46:45.328Z,75.00
2019-05-22T18:49:17.548Z,74.90
2019-05-22T18:51:48.116Z,74.80
2019-05-22T18:54:19.134Z,75.00
2019-05-22T18:56:49.938Z,75.20
2019-05-22T18:59:20.592Z,75.00
2019-05-22T19:01:51.460Z,74.80
2019-05-22T19:04:24.040Z,74.90
2019-05-22T19:06:56.058Z,75.10
2019-05-22T19:09:26.566Z,75.10
2019-05-22T19:11:57.154Z,75.20
2019-05-22T19:14:28.213Z,75.30
2019-05-22T19:16:58.721Z,75.20
2019-05-22T19:19:29.533Z,75.40
2019-05-22T19:22:01.694Z,75.50
2019-05-22T19:24:32.087Z,75.70
2019-05-22T19:27:02.539Z,75.80
2019-05-22T19:29:33.192Z,76.30
2019-05-22T19:32:03.928Z,76.60
2019-05-22T19:34:34.385Z,76.80
2019-05-22T19:37:04.937Z,76.50
2019-05-22T19:39:35.857Z,76.80
2019-05-22T19:42:07.809Z,76.90
2019-05-22T19:44:38.445Z,77.00
2019-05-22T19:47:08.896Z,77.00
2019-05-22T19:49:43.463Z,77.00
2019-05-22T19:52:14.260Z,77.00
2019-05-22T19:54:44.997Z,76.80
2019-05-22T19:57:17.246Z,76.90
2019-05-22T19:59:48.210Z,77.00
2019-05-22T20:02:18.668Z,76.90
2019-05-22T20:04:49.255Z,77.00
2019-05-22T20:07:21.993Z,77.00
2019-05-22T20:09:52.827Z,77.30
2019-05-22T20:12:24.963Z,77.40
2019-05-22T20:14:57.187Z,77.50
2019-05-22T20:17:29.297Z,77.60
2019-05-22T20:19:59.766Z,77.70
2019-05-22T20:22:30.397Z,77.50
2019-05-22T20:25:01.044Z,77.70
2019-05-22T20:27:31.465Z,77.70
2019-05-22T20:30:03.482Z,77.20
2019-05-22T20:32:34.365Z,77.60
2019-05-22T20:35:07.212Z,77.40
2019-05-22T20:37:38.268Z,77.50
2019-05-22T20:40:09.882Z,77.60
2019-05-22T20:42:42.026Z,77.70
2019-05-22T20:45:13.075Z,77.50
2019-05-22T20:47:45.992Z,77.90
2019-05-22T20:50:17.915Z,78.20
2019-05-22T20:52:49.660Z,78.20
2019-05-22T20:55:20.057Z,78.40
2019-05-22T20:57:51.197Z,78.30
2019-05-22T21:00:21.856Z,78.10
2019-05-22T21:02:55.228Z,78.30
2019-05-22T21:05:27.454Z,78.30
2019-05-22T21:08:01.178Z,78.40
2019-05-22T21:10:32.352Z,78.50
2019-05-22T21:13:03.036Z,78.80
2019-05-22T21:15:33.983Z,78.70
2019-05-22T21:18:04.701Z,78.90
2019-05-22T21:20:35.841Z,78.80
2019-05-22T21:23:07.596Z,78.90
2019-05-22T21:25:39.439Z,78.90
2019-05-22T21:28:10.005Z,79.10
2019-05-22T21:30:41.545Z,79.10
2019-05-22T21:33:12.458Z,79.20
2019-05-22T21:35:42.905Z,79.10
2019-05-22T21:38:14.136Z,78.90
2019-05-22T21:40:44.509Z,79.10
2019-05-22T21:43:15.362Z,79.30
2019-05-22T21:45:46.450Z,79.40
2019-05-22T21:48:18.359Z,79.50
2019-05-22T21:51:07.486Z,79.50
2019-05-22T21:53:55.665Z,79.50
2019-05-22T21:56:43.661Z,79.30
2019-05-22T21:59:31.259Z,79.20
2019-05-22T22:02:25.743Z,79.20
2019-05-22T22:05:15.275Z,79.10
2019-05-22T22:08:03.250Z,79.10
2019-05-22T22:10:51.296Z,79.10
2019-05-22T22:13:41.336Z,79.20
2019-05-22T22:16:11.853Z,79.10
2019-05-22T22:18:43.133Z,79.20
2019-05-22T22:21:15.346Z,79.00
2019-05-22T22:23:47.004Z,79.20
2019-05-22T22:26:25.186Z,79.10
2019-05-22T22:28:50.622Z,79.00
2019-05-22T22:31:22.593Z,78.90
2019-05-22T22:33:56.055Z,79.00
2019-05-22T22:36:28.489Z,79.20
2019-05-22T22:38:58.990Z,79.10
2019-05-22T22:41:29.473Z,79.30
2019-05-22T22:44:01.708Z,79.30
2019-05-22T22:46:40.130Z,79.50
2019-05-22T22:49:15.142Z,79.60
2019-05-22T22:51:47.522Z,79.60
2019-05-22T22:54:19.527Z,79.90
2019-05-22T22:56:50.250Z,79.90
2019-05-22T22:59:21.098Z,79.90
2019-05-22T23:01:53.386Z,80.00
2019-05-22T23:04:27.127Z,80.00
2019-05-22T23:07:00.794Z,80.00
2019-05-22T23:09:31.776Z,80.00
2019-05-22T23:12:03.917Z,80.00
2019-05-22T23:14:35.873Z,79.90
2019-05-22T23:17:08.650Z,79.90
2019-05-22T23:19:39.390Z,79.80
2019-05-22T23:22:10.296Z,79.80
2019-05-22T23:24:41.381Z,79.90
2019-05-22T23:27:13.417Z,79.90
2019-05-22T23:29:44.771Z,79.80
2019-05-22T23:32:15.608Z,79.80
2019-05-22T23:34:47.382Z,79.90
2019-05-22T23:37:22.483Z,80.00
2019-05-22T23:39:53.336Z,80.10
2019-05-22T23:42:27.100Z,80.20
2019-05-22T23:45:00.558Z,80.20
2019-05-22T23:47:32.061Z,80.20
2019-05-22T23:50:02.567Z,80.10
2019-05-22T23:52:33.672Z,80.00
2019-05-22T23:55:06.618Z,79.90
2019-05-22T23:57:38.409Z,79.90
